Time;durP1;ratioP1;P1;durP2;ratioP2;P2;SDS_P1;SDS_P2;PMS_P1;PMS_P2;Temp;Humidity;BMP_temperature;BMP_pressure;BME280_temperature;BME280_humidity;BME280_pressure;Samples;Min_cycle;Max_cycle;Signal;HPM_P1;HPM_P2
2023/03/21 00:02:04;;;;;;;1.20;1.00;;;20.10;62.90;;;;;;5014339;28;20505;-92
2023/03/21 00:04:31;;;;;;;1.20;0.80;;;20.10;62.90;;;;;;5014173;28;20461;-90
2023/03/21 00:06:58;;;;;;;1.20;1.07;;;20.10;62.90;;;;;;5013325;28;20457;-92
2023/03/21 00:09:25;;;;;;;1.20;1.00;;;20.10;62.90;;;;;;5014558;28;20465;-92
2023/03/21 00:11:52;;;;;;;1.20;1.00;;;20.10;62.90;;;;;;5014218;28;20525;-89
2023/03/21 00:14:22;;;;;;;1.20;1.10;;;20.10;62.90;;;;;;5014192;28;20444;-90
2023/03/21 00:16:50;;;;;;;2.00;1.10;;;20.10;63.80;;;;;;5013977;28;20856;-90
2023/03/21 00:19:18;;;;;;;1.30;1.00;;;20.10;62.90;;;;;;5013901;28;20968;-92
2023/03/21 00:21:45;;;;;;;1.30;1.17;;;20.10;62.90;;;;;;5013930;28;20525;-90
2023/03/21 00:24:12;;;;;;;1.20;0.90;;;20.10;62.90;;;;;;5013854;28;20447;-89
2023/03/21 00:26:39;;;;;;;1.20;1.00;;;20.10;62.90;;;;;;5014302;28;20960;-89
2023/03/21 00:29:06;;;;;;;1.10;0.90;;;20.10;62.90;;;;;;5014406;28;20451;-90
2023/03/21 00:31:34;;;;;;;1.30;0.90;;;20.10;62.90;;;;;;5014267;28;20953;-92
2023/03/21 00:34:01;;;;;;;1.00;0.80;;;20.10;63.80;;;;;;5014314;28;20466;-92
2023/03/21 00:36:30;;;;;;;1.10;0.90;;;20.10;63.80;;;;;;5014415;28;20512;-90
2023/03/21 00:38:57;;;;;;;1.13;1.00;;;20.10;62.90;;;;;;5014104;28;20528;-92
2023/03/21 00:41:23;;;;;;;1.67;0.90;;;20.10;62.90;;;;;;5014175;28;20534;-92
2023/03/21 00:43:50;;;;;;;1.00;0.70;;;20.10;62.90;;;;;;5014067;28;20931;-90
2023/03/21 00:46:17;;;;;;;1.87;1.20;;;20.10;62.90;;;;;;5014362;28;20530;-89
2023/03/21 00:48:45;;;;;;;1.20;1.00;;;20.10;62.90;;;;;;5014295;28;20450;-92
2023/03/21 00:51:15;;;;;;;1.10;0.80;;;20.10;62.90;;;;;;5014271;28;20529;-90
2023/03/21 00:53:42;;;;;;;1.40;0.90;;;20.10;62.90;;;;;;5014226;28;20454;-90
2023/03/21 00:56:10;;;;;;;1.60;1.00;;;20.10;62.90;;;;;;5014049;28;20448;-92
2023/03/21 00:58:36;;;;;;;1.33;0.93;;;20.10;62.90;;;;;;5013833;28;20578;-92
2023/03/21 01:01:05;;;;;;;1.17;0.97;;;20.10;63.00;;;;;;5014774;28;20465;-92
2023/03/21 01:03:41;;;;;;;1.53;1.00;;;20.10;62.90;;;;;;5014177;28;20581;-90
2023/03/21 01:06:12;;;;;;;1.10;0.90;;;20.10;62.90;;;;;;5014269;28;20457;-93
2023/03/21 01:08:41;;;;;;;1.10;0.90;;;20.10;62.90;;;;;;5014486;28;20543;-93
2023/03/21 01:11:11;;;;;;;1.20;1.00;;;20.10;62.90;;;;;;5013929;28;20439;-89
2023/03/21 01:13:37;;;;;;;1.10;1.00;;;20.10;62.90;;;;;;5013962;28;20946;-90
2023/03/21 01:16:07;;;;;;;1.23;1.10;;;20.10;62.90;;;;;;5013987;28;20447;-92
2023/03/21 01:18:36;;;;;;;1.23;1.10;;;20.10;62.90;;;;;;5015330;28;20541;-90
2023/03/21 01:21:07;;;;;;;1.20;1.00;;;20.10;62.90;;;;;;5018034;28;20933;-92
2023/03/21 01:23:35;;;;;;;1.40;1.13;;;20.10;62.90;;;;;;5018074;28;20464;-92
2023/03/21 01:26:02;;;;;;;1.20;0.93;;;20.10;63.00;;;;;;5017675;28;20439;-89
2023/03/21 01:28:30;;;;;;;1.10;0.77;;;20.10;62.90;;;;;;5017658;28;20439;-92
2023/03/21 01:30:57;;;;;;;1.23;1.03;;;20.10;62.90;;;;;;5017788;28;20446;-92
2023/03/21 01:33:24;;;;;;;1.43;1.00;;;20.10;62.90;;;;;;5017303;28;20817;-92
2023/03/21 01:35:52;;;;;;;1.10;0.80;;;20.10;62.90;;;;;;5018127;28;20525;-90
2023/03/21 01:38:19;;;;;;;1.47;0.80;;;20.10;62.90;;;;;;5017521;28;20576;-89
2023/03/21 01:40:50;;;;;;;1.43;1.20;;;20.10;62.90;;;;;;5017665;28;20548;-92
2023/03/21 01:43:23;;;;;;;1.30;0.90;;;20.10;62.90;;;;;;5017682;28;20796;-90
2023/03/21 01:46:22;;;;;;;1.20;1.00;;;20.10;62.90;;;;;;5017533;28;20446;-90
2023/03/21 01:48:54;;;;;;;1.03;0.80;;;20.10;62.90;;;;;;5002147;28;20454;-90
2023/03/21 01:51:23;;;;;;;1.33;0.93;;;20.10;62.90;;;;;;5017517;28;20438;-91
2023/03/21 01:53:50;;;;;;;1.10;1.00;;;20.10;63.00;;;;;;5017092;28;20442;-90
2023/03/21 01:56:24;;;;;;;1.10;0.90;;;20.00;63.70;;;;;;5017241;28;20444;-89
2023/03/21 01:58:57;;;;;;;1.50;0.97;;;20.10;63.00;;;;;;5017043;28;20493;-90
2023/03/21 02:01:24;;;;;;;1.10;0.80;;;20.10;63.00;;;;;;5017159;28;20950;-92
2023/03/21 02:03:52;;;;;;;1.40;1.00;;;20.00;62.90;;;;;;5017030;28;20472;-90
2023/03/21 02:06:32;;;;;;;1.43;1.00;;;20.00;62.90;;;;;;5017028;28;20550;-92
2023/03/21 02:09:03;;;;;;;1.40;0.90;;;20.10;63.00;;;;;;5017118;28;20449;-91
2023/03/21 02:11:32;;;;;;;1.10;0.77;;;20.00;62.90;;;;;;5017148;28;20500;-89
2023/03/21 02:13:59;;;;;;;1.10;0.97;;;20.00;62.90;;;;;;5038969;28;20490;-91
2023/03/21 02:16:34;;;;;;;1.20;1.03;;;20.00;62.80;;;;;;5037853;28;20451;-93
2023/03/21 02:19:19;;;;;;;1.23;0.90;;;20.00;62.90;;;;;;5016846;28;20497;-91
2023/03/21 02:22:14;;;;;;;1.30;1.20;;;20.10;62.90;;;;;;5016787;28;20447;-92
2023/03/21 02:25:12;;;;;;;1.13;0.80;;;20.00;62.80;;;;;;5013643;28;20451;-89
2023/03/21 02:27:47;;;;;;;1.17;1.00;;;20.00;62.90;;;;;;5016940;28;20456;-90
2023/03/21 02:30:36;;;;;;;1.10;0.90;;;20.00;62.90;;;;;;5016002;28;20446;-93
2023/03/21 02:33:21;;;;;;;1.60;1.10;;;20.00;62.90;;;;;;5020536;28;20463;-90
2023/03/21 02:36:06;;;;;;;1.73;1.00;;;20.20;63.10;;;;;;5041166;28;20481;-91
2023/03/21 02:38:41;;;;;;;2.37;1.00;;;20.00;62.90;;;;;;5040871;28;20463;-89
2023/03/21 02:41:16;;;;;;;1.37;0.90;;;20.00;62.90;;;;;;5036176;28;20914;-93
2023/03/21 02:43:46;;;;;;;1.20;1.10;;;20.00;62.90;;;;;;5016792;28;20456;-92
2023/03/21 02:46:17;;;;;;;1.40;0.93;;;20.00;62.90;;;;;;5016974;28;20435;-90
2023/03/21 02:48:51;;;;;;;1.23;1.13;;;20.00;62.90;;;;;;5017104;28;20450;-89
2023/03/21 02:51:21;;;;;;;1.23;0.90;;;20.00;62.90;;;;;;5016578;28;20450;-92
2023/03/21 02:53:53;;;;;;;1.40;1.00;;;20.00;62.90;;;;;;5016516;28;20439;-90
2023/03/21 02:56:21;;;;;;;1.33;0.93;;;20.00;62.90;;;;;;5016816;28;20969;-89
2023/03/21 02:58:49;;;;;;;1.07;0.97;;;20.00;62.80;;;;;;5016016;28;21008;-92
2023/03/21 03:01:16;;;;;;;1.20;1.00;;;20.00;62.80;;;;;;5016283;28;20462;-90
2023/03/21 03:03:43;;;;;;;1.10;0.90;;;20.00;62.80;;;;;;5015801;28;20465;-93
2023/03/21 03:06:17;;;;;;;1.20;0.83;;;20.00;62.90;;;;;;5015670;28;21051;-92
2023/03/21 03:09:06;;;;;;;1.07;0.93;;;20.20;63.10;;;;;;5015822;28;20521;-90
2023/03/21 03:11:35;;;;;;;1.10;0.90;;;20.00;62.80;;;;;;5015248;28;20443;-93
2023/03/21 03:14:17;;;;;;;1.20;1.03;;;20.00;62.80;;;;;;5015476;28;20452;-89
2023/03/21 03:16:53;;;;;;;1.30;0.90;;;20.00;62.80;;;;;;5015480;28;20450;-92
2023/03/21 03:19:27;;;;;;;1.10;0.90;;;20.00;62.80;;;;;;5015267;28;20569;-89
2023/03/21 03:21:59;;;;;;;1.10;0.90;;;20.10;63.00;;;;;;5015392;28;20947;-89
2023/03/21 03:24:31;;;;;;;1.57;1.10;;;20.10;63.00;;;;;;5015280;28;20442;-89
2023/03/21 03:27:02;;;;;;;1.27;1.03;;;20.00;62.80;;;;;;5015562;28;20538;-90
2023/03/21 03:29:31;;;;;;;1.30;1.10;;;20.00;62.80;;;;;;5015625;28;20440;-89
2023/03/21 03:32:01;;;;;;;1.30;1.00;;;20.00;62.90;;;;;;5015415;28;20939;-90
2023/03/21 03:34:33;;;;;;;1.30;1.20;;;19.90;62.70;;;;;;5015930;28;20439;-92
2023/03/21 03:39:51;;;;;;;1.20;0.90;;;20.00;63.70;;;;;;5013652;28;20518;-92
2023/03/21 03:42:21;;;;;;;1.13;1.03;;;20.00;62.90;;;;;;5015200;28;20953;-89
2023/03/21 03:44:48;;;;;;;1.50;1.00;;;20.00;62.90;;;;;;5015211;28;20435;-92
2023/03/21 03:47:22;;;;;;;1.13;1.00;;;19.90;62.80;;;;;;5015247;28;20447;-90
2023/03/21 03:49:55;;;;;;;1.40;1.13;;;19.90;62.80;;;;;;5015270;28;20449;-89
2023/03/21 03:52:26;;;;;;;1.37;1.17;;;20.00;62.80;;;;;;5015081;28;20512;-92
2023/03/21 03:54:55;;;;;;;2.00;0.90;;;20.00;62.90;;;;;;5015758;28;20450;-92
2023/03/21 03:57:24;;;;;;;1.27;0.97;;;20.10;62.90;;;;;;5015464;28;20462;-90
2023/03/21 03:59:51;;;;;;;1.20;0.90;;;20.10;62.90;;;;;;5015000;28;20496;-89
2023/03/21 04:02:19;;;;;;;3.30;1.10;;;19.90;62.80;;;;;;5015171;28;20459;-92
2023/03/21 04:04:45;;;;;;;2.03;1.03;;;19.90;62.80;;;;;;5015349;28;20447;-92
2023/03/21 04:07:13;;;;;;;1.70;1.10;;;19.90;62.80;;;;;;5015086;28;20443;-90
2023/03/21 04:09:41;;;;;;;1.53;1.13;;;19.90;62.80;;;;;;5014741;28;20447;-90
2023/03/21 04:12:13;;;;;;;1.43;0.87;;;19.90;62.70;;;;;;5014708;28;21013;-89
2023/03/21 04:14:40;;;;;;;1.10;0.80;;;19.90;62.80;;;;;;5017125;28;20505;-90
2023/03/21 04:17:06;;;;;;;1.10;1.00;;;19.90;63.60;;;;;;5015035;28;20532;-89
2023/03/21 04:19:33;;;;;;;1.50;1.07;;;20.10;62.90;;;;;;5014785;28;20581;-92
2023/03/21 04:22:00;;;;;;;1.27;1.13;;;19.90;62.70;;;;;;5014572;28;20541;-91
2023/03/21 04:24:27;;;;;;;1.40;1.30;;;19.90;62.80;;;;;;5014740;28;20938;-93
2023/03/21 04:26:54;;;;;;;1.10;0.90;;;19.90;62.80;;;;;;5014792;28;20546;-90
2023/03/21 04:29:22;;;;;;;1.73;1.17;;;19.90;62.80;;;;;;5015442;28;20458;-91
2023/03/21 04:31:49;;;;;;;1.27;1.07;;;19.90;62.80;;;;;;5015133;28;20442;-90
2023/03/21 04:34:16;;;;;;;1.60;1.10;;;19.90;62.70;;;;;;5015237;28;20439;-92
2023/03/21 04:36:44;;;;;;;1.10;0.90;;;19.90;62.80;;;;;;5015305;28;20450;-90
2023/03/21 04:39:14;;;;;;;1.30;1.10;;;19.90;62.80;;;;;;5015572;28;20517;-90
2023/03/21 04:41:41;;;;;;;1.10;0.93;;;20.10;63.00;;;;;;5017608;28;20462;-90
2023/03/21 04:44:09;;;;;;;1.40;1.03;;;20.00;62.90;;;;;;5029078;28;20482;-89
2023/03/21 04:46:39;;;;;;;1.40;1.00;;;19.90;62.80;;;;;;5038873;28;20450;-89
2023/03/21 04:49:07;;;;;;;1.30;0.90;;;19.90;62.80;;;;;;5018801;28;20532;-90
2023/03/21 04:51:34;;;;;;;1.57;1.00;;;20.10;63.00;;;;;;5014064;28;20442;-93
2023/03/21 04:54:01;;;;;;;1.17;1.07;;;19.90;62.70;;;;;;5013548;28;20444;-89
2023/03/21 04:56:31;;;;;;;1.40;1.10;;;19.90;62.80;;;;;;5013854;28;20939;-90
2023/03/21 04:58:58;;;;;;;2.60;1.00;;;19.90;62.80;;;;;;5013679;28;20836;-93
2023/03/21 05:01:29;;;;;;;1.30;1.10;;;20.00;62.90;;;;;;5014237;28;20447;-89
2023/03/21 05:04:15;;;;;;;1.30;1.20;;;19.90;62.70;;;;;;5015204;28;20594;-92
2023/03/21 05:10:15;;;;;;;1.20;1.00;;;19.90;62.80;;;;;;5088636;23;20559;-91
2023/03/21 05:12:42;;;;;;;2.00;1.10;;;19.90;62.80;;;;;;5110673;23;20504;-90
2023/03/21 05:15:10;;;;;;;1.30;1.10;;;19.90;62.80;;;;;;5014690;28;21019;-93
2023/03/21 05:17:36;;;;;;;1.50;0.93;;;19.90;62.80;;;;;;5014561;28;20924;-92
2023/03/21 05:20:08;;;;;;;1.23;1.10;;;19.90;62.70;;;;;;5014267;28;21088;-90
2023/03/21 05:22:39;;;;;;;1.20;1.10;;;19.90;62.80;;;;;;5014617;28;20452;-93
2023/03/21 05:25:07;;;;;;;1.10;0.90;;;19.90;62.80;;;;;;5014283;28;20813;-91
2023/03/21 05:27:35;;;;;;;1.20;1.00;;;19.90;62.80;;;;;;5015161;28;20440;-93
2023/03/21 05:30:04;;;;;;;1.10;0.90;;;19.90;62.70;;;;;;5014237;28;20853;-92
2023/03/21 05:32:31;;;;;;;1.30;1.20;;;20.00;62.80;;;;;;5013397;28;20470;-91
2023/03/21 05:34:58;;;;;;;2.07;0.90;;;19.90;62.80;;;;;;5013952;28;20441;-93
2023/03/21 05:37:27;;;;;;;1.23;0.90;;;20.00;62.90;;;;;;5013384;28;20889;-93
2023/03/21 05:39:53;;;;;;;1.20;0.97;;;20.00;62.90;;;;;;5013169;28;20527;-92
2023/03/21 05:42:20;;;;;;;1.50;1.10;;;19.90;62.80;;;;;;5013420;28;20546;-92
2023/03/21 05:44:47;;;;;;;1.33;1.10;;;19.90;62.80;;;;;;5013555;28;20445;-91
2023/03/21 05:47:15;;;;;;;1.30;1.00;;;19.90;62.80;;;;;;5013491;28;20808;-90
2023/03/21 05:49:43;;;;;;;1.50;1.30;;;19.90;62.80;;;;;;5013398;28;20450;-92
2023/03/21 05:52:10;;;;;;;1.10;0.90;;;19.90;62.80;;;;;;5013379;28;20443;-90
2023/03/21 05:54:38;;;;;;;1.20;0.80;;;19.90;62.80;;;;;;5013433;28;20449;-92
2023/03/21 05:57:05;;;;;;;1.50;1.00;;;19.90;62.70;;;;;;5013254;28;20447;-93
2023/03/21 05:59:33;;;;;;;1.40;1.20;;;19.90;62.80;;;;;;5013228;28;20479;-91
2023/03/21 06:02:00;;;;;;;1.20;1.10;;;19.90;62.70;;;;;;5013141;28;20471;-90
2023/03/21 06:04:27;;;;;;;1.30;1.07;;;19.90;62.80;;;;;;5014248;28;20449;-92
2023/03/21 06:06:54;;;;;;;1.20;0.93;;;19.90;62.70;;;;;;5016741;28;20439;-90
2023/03/21 06:09:22;;;;;;;1.47;0.93;;;19.90;62.80;;;;;;5017121;28;20818;-91
2023/03/21 06:11:53;;;;;;;1.10;0.90;;;19.90;62.70;;;;;;5016454;28;20497;-90
2023/03/21 06:14:21;;;;;;;1.33;1.10;;;19.90;62.80;;;;;;5017015;28;20449;-90
2023/03/21 06:16:48;;;;;;;1.40;1.30;;;19.90;62.70;;;;;;5017284;28;20477;-93
2023/03/21 06:19:15;;;;;;;1.20;1.00;;;19.90;62.70;;;;;;5016878;28;20481;-93
2023/03/21 06:21:42;;;;;;;1.27;1.00;;;19.90;62.70;;;;;;5016773;28;20443;-91
2023/03/21 06:24:10;;;;;;;1.53;1.30;;;19.90;62.70;;;;;;5016995;28;20442;-93
2023/03/21 06:26:37;;;;;;;1.63;1.53;;;19.90;62.70;;;;;;5016774;28;20475;-93
2023/03/21 06:29:05;;;;;;;1.20;1.07;;;19.90;62.70;;;;;;5016951;28;20447;-93
2023/03/21 06:31:34;;;;;;;1.30;1.10;;;20.10;62.90;;;;;;5017311;28;20467;-91
2023/03/21 06:34:01;;;;;;;1.00;0.80;;;20.00;62.70;;;;;;5018913;28;20505;-90
2023/03/21 06:36:28;;;;;;;1.27;1.10;;;19.90;62.70;;;;;;5016590;28;20802;-93
2023/03/21 06:38:54;;;;;;;1.50;1.20;;;19.90;62.70;;;;;;5015860;28;20443;-93
2023/03/21 06:41:21;;;;;;;1.40;0.90;;;19.90;62.70;;;;;;5015898;28;20457;-93
2023/03/21 06:43:48;;;;;;;1.93;1.03;;;19.90;62.70;;;;;;5015700;28;20449;-91
2023/03/21 06:46:16;;;;;;;1.50;1.03;;;19.90;62.70;;;;;;5015584;28;20534;-90
2023/03/21 06:48:44;;;;;;;1.30;1.10;;;19.90;62.70;;;;;;5015640;28;20449;-93
2023/03/21 06:51:12;;;;;;;1.10;0.90;;;19.90;62.70;;;;;;5015578;28;20451;-91
2023/03/21 06:53:40;;;;;;;2.77;0.90;;;19.90;62.70;;;;;;5015704;28;20444;-90
2023/03/21 06:56:08;;;;;;;1.30;1.07;;;19.90;62.70;;;;;;5015663;28;20497;-92
2023/03/21 06:58:35;;;;;;;1.47;1.10;;;19.90;62.70;;;;;;5015794;28;20454;-92
2023/03/21 07:01:02;;;;;;;1.50;0.90;;;19.90;62.70;;;;;;5015316;28;20854;-91
2023/03/21 07:03:31;;;;;;;1.70;1.00;;;19.90;62.70;;;;;;5015379;28;20518;-92
2023/03/21 07:05:58;;;;;;;1.40;1.10;;;20.00;62.90;;;;;;5015687;28;20439;-90
2023/03/21 07:08:25;;;;;;;1.10;1.00;;;20.00;62.80;;;;;;5015528;28;20443;-90
2023/03/21 07:10:57;;;;;;;1.30;1.07;;;19.90;62.70;;;;;;5015273;28;20469;-92
2023/03/21 07:13:24;;;;;;;1.17;1.07;;;19.90;62.70;;;;;;5015361;28;20470;-92
2023/03/21 07:15:52;;;;;;;1.10;1.00;;;20.00;62.80;;;;;;5014828;28;20446;-93
2023/03/21 07:18:19;;;;;;;1.37;1.00;;;19.90;62.70;;;;;;5015113;28;20439;-93
2023/03/21 07:20:50;;;;;;;1.40;1.03;;;19.90;62.70;;;;;;5014806;28;20483;-92
2023/03/21 07:23:17;;;;;;;1.20;1.00;;;19.90;62.80;;;;;;5015510;28;20439;-91
2023/03/21 07:25:45;;;;;;;1.13;0.90;;;19.90;62.70;;;;;;5014855;28;20446;-92
2023/03/21 07:28:12;;;;;;;1.37;1.27;;;19.90;62.70;;;;;;5014832;28;20443;-91
2023/03/21 07:30:38;;;;;;;1.17;0.93;;;19.90;62.70;;;;;;5015114;28;20438;-92
2023/03/21 07:33:06;;;;;;;1.63;1.10;;;19.90;63.50;;;;;;5014760;28;20502;-92
2023/03/21 07:35:35;;;;;;;1.10;0.83;;;20.00;62.80;;;;;;5014994;28;20518;-93
2023/03/21 07:38:03;;;;;;;1.10;0.83;;;19.90;62.70;;;;;;5014742;28;20443;-91
2023/03/21 07:40:30;;;;;;;1.40;1.20;;;19.90;62.70;;;;;;5014805;28;20489;-93
2023/03/21 07:42:57;;;;;;;1.20;1.00;;;19.90;62.70;;;;;;5014622;28;20450;-93
2023/03/21 07:45:26;;;;;;;1.33;1.23;;;19.90;62.70;;;;;;5014471;28;20456;-93
2023/03/21 07:47:53;;;;;;;1.40;1.00;;;19.90;62.70;;;;;;5014928;28;20935;-92
2023/03/21 07:50:20;;;;;;;1.10;1.00;;;19.90;62.70;;;;;;5014551;28;20454;-92
2023/03/21 07:52:48;;;;;;;1.40;0.93;;;19.90;62.70;;;;;;5014752;28;20450;-92
2023/03/21 07:55:17;;;;;;;1.20;1.10;;;19.90;62.70;;;;;;5014571;28;20462;-92
2023/03/21 07:57:44;;;;;;;1.20;0.93;;;19.90;62.70;;;;;;5014739;28;20436;-92
2023/03/21 08:00:12;;;;;;;1.30;1.03;;;19.90;62.70;;;;;;5014263;28;20483;-93
2023/03/21 08:02:39;;;;;;;1.10;0.90;;;19.90;62.70;;;;;;5014263;28;20563;-93
2023/03/21 08:05:07;;;;;;;1.47;1.10;;;19.90;62.70;;;;;;5014428;28;20443;-92
2023/03/21 08:07:33;;;;;;;1.27;1.10;;;19.90;62.70;;;;;;5014206;28;21008;-93
2023/03/21 08:10:00;;;;;;;1.43;0.90;;;19.90;62.70;;;;;;5014450;28;20440;-93
2023/03/21 08:12:29;;;;;;;1.10;1.00;;;19.90;62.60;;;;;;5014106;28;20475;-93
2023/03/21 08:14:55;;;;;;;1.13;0.90;;;19.90;62.80;;;;;;5014308;28;20446;-93
2023/03/21 08:17:22;;;;;;;1.13;0.90;;;20.00;62.80;;;;;;5014083;28;20478;-90
2023/03/21 08:19:49;;;;;;;1.40;1.10;;;19.90;62.70;;;;;;5014108;28;20589;-90
2023/03/21 08:22:16;;;;;;;1.30;1.10;;;19.90;62.60;;;;;;5014095;28;20446;-90
2023/03/21 08:24:43;;;;;;;1.30;0.97;;;19.90;62.70;;;;;;5014244;28;20881;-90
2023/03/21 08:27:10;;;;;;;1.00;0.80;;;19.90;62.70;;;;;;5013661;28;20862;-93
2023/03/21 08:29:41;;;;;;;1.20;1.00;;;19.90;62.60;;;;;;5013336;28;20923;-92
2023/03/21 08:32:08;;;;;;;1.20;1.00;;;19.90;62.70;;;;;;5013901;28;20475;-92
2023/03/21 08:34:35;;;;;;;1.30;1.00;;;19.90;62.60;;;;;;5014058;28;20437;-92
2023/03/21 08:37:02;;;;;;;1.20;0.90;;;19.90;62.60;;;;;;5013851;28;20445;-92
2023/03/21 08:39:29;;;;;;;1.37;1.03;;;19.90;62.60;;;;;;5014002;28;20454;-93
2023/03/21 08:41:56;;;;;;;2.17;1.23;;;19.90;62.60;;;;;;5013918;28;20528;-92
2023/03/21 08:44:24;;;;;;;1.20;1.00;;;19.90;62.50;;;;;;5013747;28;20517;-91
2023/03/21 08:46:52;;;;;;;1.20;1.00;;;19.90;62.50;;;;;;5014519;28;20950;-92
2023/03/21 08:49:19;;;;;;;1.70;1.30;;;20.10;62.80;;;;;;5013739;28;20534;-92
2023/03/21 08:51:46;;;;;;;1.80;1.10;;;19.90;62.50;;;;;;5013642;28;20923;-92
2023/03/21 08:54:20;;;;;;;1.47;0.90;;;19.90;62.40;;;;;;5013669;28;20443;-90
2023/03/21 08:56:47;;;;;;;1.20;1.03;;;20.00;62.60;;;;;;5013657;28;20454;-92
2023/03/21 08:59:15;;;;;;;1.10;0.97;;;20.00;62.50;;;;;;5013526;28;20450;-90
2023/03/21 09:01:42;;;;;;;1.30;1.00;;;20.00;63.40;;;;;;5013313;28;20494;-93
2023/03/21 09:04:10;;;;;;;2.67;1.07;;;20.00;62.50;;;;;;5013612;28;20443;-92
2023/03/21 09:06:39;;;;;;;1.10;0.90;;;20.00;62.50;;;;;;5013522;28;20439;-93
2023/03/21 09:09:08;;;;;;;1.23;1.10;;;20.00;62.50;;;;;;5013721;28;20890;-92
2023/03/21 09:11:35;;;;;;;1.90;1.20;;;20.00;62.50;;;;;;5013212;28;20971;-92
2023/03/21 09:14:02;;;;;;;1.30;1.03;;;20.10;62.60;;;;;;5013596;28;20451;-93
2023/03/21 09:16:28;;;;;;;2.20;1.23;;;20.00;62.50;;;;;;5013668;28;20446;-92
2023/03/21 09:18:57;;;;;;;1.10;1.00;;;20.00;62.50;;;;;;5013513;28;20446;-92
2023/03/21 09:21:27;;;;;;;1.27;1.00;;;20.10;62.60;;;;;;5013533;28;20493;-92
2023/03/21 09:23:57;;;;;;;1.30;0.90;;;20.00;62.50;;;;;;5013452;28;20457;-92
2023/03/21 09:26:26;;;;;;;1.20;1.10;;;20.00;62.40;;;;;;5013439;28;20924;-92
2023/03/21 09:28:53;;;;;;;1.13;0.90;;;20.00;62.50;;;;;;5013228;28;20453;-90
2023/03/21 09:31:21;;;;;;;1.53;1.00;;;20.00;62.50;;;;;;5013509;28;20469;-92
2023/03/21 09:33:48;;;;;;;1.10;1.00;;;20.00;62.50;;;;;;5013255;28;20459;-92
2023/03/21 09:36:17;;;;;;;1.10;1.00;;;20.00;62.50;;;;;;5013409;28;20463;-92
2023/03/21 09:38:47;;;;;;;1.53;0.90;;;20.00;62.40;;;;;;5013216;28;20502;-92
2023/03/21 09:41:31;;;;;;;1.30;1.10;;;20.00;62.40;;;;;;5016764;28;21064;-92
2023/03/21 09:44:10;;;;;;;1.20;1.00;;;20.00;62.30;;;;;;5017019;28;20517;-93
2023/03/21 09:46:44;;;;;;;1.40;1.30;;;20.00;62.40;;;;;;5017103;28;20445;-93
2023/03/21 09:49:17;;;;;;;1.07;0.93;;;20.00;62.40;;;;;;5016847;28;20451;-92
2023/03/21 09:51:47;;;;;;;1.10;0.90;;;20.00;62.40;;;;;;5017053;28;20455;-92
2023/03/21 09:54:21;;;;;;;1.37;1.13;;;20.00;62.40;;;;;;5017271;28;20944;-93
2023/03/21 09:56:50;;;;;;;1.20;1.00;;;20.10;62.60;;;;;;5017014;28;20503;-93
2023/03/21 09:59:23;;;;;;;1.00;0.90;;;20.00;62.40;;;;;;5016675;28;20439;-93
2023/03/21 10:01:50;;;;;;;1.20;0.90;;;20.00;62.40;;;;;;5016453;28;20478;-93
2023/03/21 10:04:19;;;;;;;1.10;1.00;;;20.10;62.50;;;;;;5016531;28;20450;-92
2023/03/21 10:06:53;;;;;;;1.10;1.00;;;20.00;62.40;;;;;;5016505;28;20922;-93
2023/03/21 10:09:23;;;;;;;1.20;1.00;;;20.00;62.40;;;;;;5016922;28;20537;-93
2023/03/21 10:11:53;;;;;;;1.20;0.90;;;20.00;62.40;;;;;;5016175;28;20984;-93
2023/03/21 10:14:25;;;;;;;1.10;1.00;;;20.00;62.30;;;;;;5016748;28;20432;-93
2023/03/21 10:16:57;;;;;;;1.50;0.93;;;20.00;62.40;;;;;;5016547;28;20980;-92
2023/03/21 10:19:26;;;;;;;2.27;1.30;;;20.00;62.30;;;;;;5016135;28;20942;-89
2023/03/21 10:21:52;;;;;;;1.20;0.93;;;20.00;62.20;;;;;;5016174;28;20902;-90
2023/03/21 10:24:23;;;;;;;1.10;0.90;;;20.00;62.20;;;;;;5016164;28;20439;-93
2023/03/21 10:26:52;;;;;;;1.10;0.90;;;20.00;62.20;;;;;;5016232;28;20767;-93
2023/03/21 10:29:22;;;;;;;1.10;0.90;;;20.00;62.20;;;;;;5016037;28;20434;-93
2023/03/21 10:31:51;;;;;;;1.20;1.00;;;20.00;62.20;;;;;;5016033;28;20448;-93
2023/03/21 10:34:25;;;;;;;1.23;1.00;;;20.00;62.20;;;;;;5016154;28;20438;-92
2023/03/21 10:36:52;;;;;;;1.27;1.10;;;20.20;62.40;;;;;;5016221;28;20466;-93
2023/03/21 10:39:26;;;;;;;1.10;0.90;;;20.10;62.30;;;;;;5016068;28;20443;-93
2023/03/21 10:41:53;;;;;;;1.10;0.90;;;20.10;62.20;;;;;;5016327;28;20498;-90
2023/03/21 10:44:21;;;;;;;1.20;1.10;;;20.00;62.20;;;;;;5015848;28;20452;-93
2023/03/21 10:46:53;;;;;;;1.10;0.90;;;20.10;62.30;;;;;;5015745;28;20532;-94
2023/03/21 10:49:21;;;;;;;1.30;1.00;;;20.20;62.40;;;;;;5015878;28;20537;-93
2023/03/21 10:51:51;;;;;;;1.40;1.10;;;20.00;62.10;;;;;;5015014;28;20509;-93
2023/03/21 10:54:20;;;;;;;1.20;1.00;;;20.10;62.30;;;;;;5015620;28;20542;-93
2023/03/21 10:56:56;;;;;;;1.07;0.90;;;20.00;62.10;;;;;;4998222;28;20790;-92
2023/03/21 10:59:25;;;;;;;1.10;0.87;;;20.20;62.30;;;;;;5015501;28;20454;-92
2023/03/21 11:01:55;;;;;;;1.73;1.00;;;20.10;62.20;;;;;;5015350;28;20486;-93
2023/03/21 11:04:25;;;;;;;1.50;1.20;;;20.10;63.10;;;;;;5015442;28;20446;-90
2023/03/21 11:06:54;;;;;;;1.40;1.03;;;20.00;63.00;;;;;;5015831;28;20861;-93
2023/03/21 11:09:23;;;;;;;1.17;0.90;;;20.10;62.30;;;;;;5015300;28;20447;-92
2023/03/21 11:11:54;;;;;;;1.00;0.90;;;20.10;62.30;;;;;;5015338;28;20445;-92
2023/03/21 11:14:36;;;;;;;1.30;1.20;;;20.10;62.30;;;;;;5015289;28;20498;-92
2023/03/21 11:17:18;;;;;;;1.10;0.87;;;20.00;62.10;;;;;;5015338;28;20462;-93
2023/03/21 11:19:49;;;;;;;1.30;0.90;;;20.00;62.10;;;;;;5015222;28;20439;-91
2023/03/21 11:22:18;;;;;;;1.17;1.00;;;20.10;62.20;;;;;;5015058;28;20525;-93
2023/03/21 11:24:51;;;;;;;1.10;1.00;;;20.00;62.10;;;;;;5015023;28;20454;-92
2023/03/21 11:27:20;;;;;;;1.23;1.13;;;20.10;62.20;;;;;;5015116;28;20493;-93
2023/03/21 11:29:48;;;;;;;2.23;0.90;;;20.00;62.10;;;;;;5015167;28;20461;-93
2023/03/21 11:32:21;;;;;;;2.70;1.43;;;20.10;62.20;;;;;;5014667;28;20463;-93
2023/03/21 11:34:52;;;;;;;3.30;0.90;;;20.10;62.20;;;;;;5014992;28;20439;-93
2023/03/21 11:37:25;;;;;;;1.77;1.00;;;20.10;62.20;;;;;;5014842;28;20454;-92
2023/03/21 11:39:56;;;;;;;1.20;0.90;;;20.20;62.30;;;;;;5014915;28;20479;-93
2023/03/21 11:42:30;;;;;;;1.20;1.00;;;20.10;62.20;;;;;;5014714;28;20487;-93
2023/03/21 11:45:02;;;;;;;1.23;0.90;;;20.10;62.40;;;;;;5014634;28;20448;-93
2023/03/21 11:47:30;;;;;;;1.07;0.80;;;20.00;62.30;;;;;;5014824;28;20926;-92
2023/03/21 11:49:57;;;;;;;1.90;1.30;;;20.00;62.40;;;;;;5014862;28;20480;-92
2023/03/21 11:52:31;;;;;;;1.23;0.87;;;20.00;62.50;;;;;;5014848;28;20534;-90
2023/03/21 11:55:31;;;;;;;1.30;0.90;;;20.00;62.50;;;;;;5014962;28;20496;-93
2023/03/21 11:58:17;;;;;;;1.30;1.20;;;20.00;62.50;;;;;;5014638;28;20445;-93
2023/03/21 12:00:53;;;;;;;1.20;0.97;;;20.10;62.60;;;;;;5014693;28;20877;-90
2023/03/21 12:03:52;;;;;;;1.60;1.10;;;20.20;62.80;;;;;;5014534;28;20827;-92
2023/03/21 12:06:24;;;;;;;1.00;0.80;;;20.20;62.80;;;;;;5014309;28;20441;-93
2023/03/21 12:09:06;;;;;;;1.13;0.80;;;20.10;62.70;;;;;;5014637;28;20456;-90
2023/03/21 12:11:43;;;;;;;1.33;1.23;;;20.10;62.70;;;;;;5013939;28;20443;-91
2023/03/21 12:14:23;;;;;;;1.13;0.90;;;20.10;62.60;;;;;;5014797;28;20438;-91
2023/03/21 12:17:02;;;;;;;1.10;0.90;;;20.10;62.70;;;;;;5014333;28;20438;-92
2023/03/21 12:20:09;;;;;;;1.70;1.00;;;20.10;62.80;;;;;;5014544;28;20450;-90
2023/03/21 12:22:46;;;;;;;1.20;0.83;;;20.00;62.70;;;;;;5013942;28;20518;-91
2023/03/21 12:25:19;;;;;;;1.20;1.00;;;20.10;62.90;;;;;;5014130;28;20438;-93
2023/03/21 12:27:55;;;;;;;1.10;0.97;;;20.20;63.10;;;;;;5014053;28;20928;-92
2023/03/21 12:30:42;;;;;;;1.20;1.10;;;20.10;62.90;;;;;;5014206;28;20444;-90
2023/03/21 12:33:25;;;;;;;1.10;0.90;;;20.00;62.90;;;;;;5014049;28;20462;-93
2023/03/21 12:36:02;;;;;;;1.60;1.00;;;20.10;63.00;;;;;;5014036;28;20841;-92
2023/03/21 12:38:40;;;;;;;1.27;1.17;;;20.10;63.00;;;;;;5014048;28;20484;-92
2023/03/21 12:41:23;;;;;;;1.83;0.90;;;20.10;63.00;;;;;;5014106;28;20486;-90
2023/03/21 12:43:53;;;;;;;1.03;0.83;;;20.00;63.60;;;;;;5014148;28;20992;-92
2023/03/21 12:46:25;;;;;;;1.20;1.10;;;20.10;63.10;;;;;;5014056;28;20452;-92
2023/03/21 12:48:58;;;;;;;1.37;0.93;;;20.10;63.10;;;;;;5013930;28;20443;-92
2023/03/21 12:51:31;;;;;;;1.20;0.97;;;20.10;63.10;;;;;;5013972;28;20437;-92
2023/03/21 12:54:05;;;;;;;1.80;1.00;;;20.10;63.10;;;;;;5013908;28;20502;-90
2023/03/21 12:56:38;;;;;;;1.10;0.80;;;20.10;63.10;;;;;;5014099;28;20435;-93
2023/03/21 12:59:13;;;;;;;1.07;0.90;;;20.10;63.10;;;;;;5014047;28;20542;-92
2023/03/21 13:01:45;;;;;;;1.27;0.90;;;20.30;63.40;;;;;;5013756;28;20497;-93
2023/03/21 13:04:36;;;;;;;1.10;0.90;;;20.10;63.10;;;;;;4996809;28;20446;-93
2023/03/21 13:07:07;;;;;;;1.77;0.80;;;20.10;63.10;;;;;;5014421;28;20941;-92
2023/03/21 13:09:36;;;;;;;1.73;0.90;;;20.10;63.10;;;;;;5014708;28;20447;-92
2023/03/21 13:12:13;;;;;;;1.50;1.30;;;20.10;63.10;;;;;;5014019;28;20467;-92